createdAt,value
2022-11-25T00:01:27.362Z,4.56
2022-11-25T00:03:56.771Z,3.79
2022-11-25T00:06:29.879Z,3.23
2022-11-25T00:09:04.063Z,2.75
2022-11-25T00:11:34.295Z,2.33
2022-11-25T00:14:02.117Z,1.97
2022-11-25T00:16:29.895Z,2.55
2022-11-25T00:18:58.589Z,4.55
2022-11-25T00:21:28.889Z,5.85
2022-11-25T00:24:02.597Z,6.81
2022-11-25T00:26:33.073Z,7.30
2022-11-25T00:29:04.122Z,7.52
2022-11-25T00:31:34.533Z,6.49
2022-11-25T00:34:03.278Z,5.21
2022-11-25T00:36:33.966Z,4.28
2022-11-25T00:39:09.505Z,3.56
2022-11-25T00:41:56.773Z,3.01
2022-11-25T00:44:37.847Z,2.57
2022-11-25T00:47:06.402Z,3.08
2022-11-25T00:49:34.323Z,5.00
2022-11-25T00:52:02.275Z,6.82
2022-11-25T00:54:30.102Z,8.34
2022-11-25T00:56:58.989Z,8.71
2022-11-25T00:59:28.815Z,7.24
2022-11-25T01:01:57.129Z,5.82
2022-11-25T01:04:25.339Z,4.77
2022-11-25T01:06:56.842Z,4.03
2022-11-25T01:09:24.590Z,3.48
2022-11-25T01:11:53.070Z,3.02
2022-11-25T01:14:22.375Z,2.61
2022-11-25T01:16:52.569Z,2.90
2022-11-25T01:19:20.924Z,4.70
2022-11-25T01:21:48.829Z,6.56
2022-11-25T01:24:17.299Z,7.35
2022-11-25T01:26:46.011Z,7.56
2022-11-25T01:29:17.009Z,6.53
2022-11-25T01:31:46.177Z,5.32
2022-11-25T01:34:25.068Z,4.42
2022-11-25T01:36:52.838Z,3.62
2022-11-25T01:39:25.648Z,3.04
2022-11-25T01:41:56.312Z,2.57
2022-11-25T01:44:27.648Z,2.56
2022-11-25T01:47:18.765Z,4.24
2022-11-25T01:49:55.626Z,5.86
2022-11-25T01:52:33.965Z,6.59
2022-11-25T01:55:22.443Z,7.07
2022-11-25T01:57:54.433Z,6.66
2022-11-25T02:00:25.588Z,5.42
2022-11-25T02:02:55.502Z,4.47
2022-11-25T02:05:34.595Z,3.78
2022-11-25T02:08:03.591Z,3.25
2022-11-25T02:10:34.570Z,2.85
2022-11-25T02:13:03.689Z,3.12
2022-11-25T02:15:34.920Z,5.01
2022-11-25T02:18:05.603Z,6.35
2022-11-25T02:20:33.665Z,7.00
2022-11-25T02:27:01.260Z,5.83
2022-11-25T02:29:28.145Z,4.77
2022-11-25T02:31:54.510Z,4.01
2022-11-25T02:34:20.984Z,3.49
2022-11-25T02:36:48.918Z,3.06
2022-11-25T02:39:18.122Z,2.67
2022-11-25T02:41:51.719Z,2.34
2022-11-25T02:44:18.254Z,2.81
2022-11-25T02:46:44.749Z,5.15
2022-11-25T02:49:11.368Z,7.20
2022-11-25T02:51:40.886Z,7.98
2022-11-25T02:54:09.300Z,7.63
2022-11-25T02:56:37.375Z,6.25
2022-11-25T02:59:04.265Z,5.14
2022-11-25T03:01:30.920Z,4.35
2022-11-25T03:03:57.887Z,3.78
2022-11-25T03:06:28.373Z,3.33
2022-11-25T03:08:55.298Z,2.95
2022-11-25T03:11:41.971Z,3.55
2022-11-25T03:14:08.486Z,6.55
2022-11-25T03:16:35.083Z,8.11
2022-11-25T03:19:03.883Z,7.95
2022-11-25T03:21:30.677Z,6.57
2022-11-25T03:23:57.123Z,5.34
2022-11-25T03:26:25.291Z,4.41
2022-11-25T03:28:52.146Z,3.69
2022-11-25T03:31:18.808Z,3.08
2022-11-25T03:33:45.219Z,2.62
2022-11-25T03:36:11.930Z,3.02
2022-11-25T03:38:38.344Z,4.98
2022-11-25T03:41:04.977Z,6.37
2022-11-25T03:43:32.441Z,6.96
2022-11-25T03:45:58.792Z,8.00
2022-11-25T03:48:25.125Z,8.47
2022-11-25T03:50:51.691Z,7.16
2022-11-25T03:53:18.006Z,5.87
2022-11-25T03:55:47.277Z,4.94
2022-11-25T03:58:13.825Z,4.28
2022-11-25T04:00:40.206Z,3.77
2022-11-25T04:03:06.616Z,3.38
2022-11-25T04:05:33.003Z,3.03
2022-11-25T04:08:02.766Z,2.71
2022-11-25T04:10:29.863Z,3.43
2022-11-25T04:12:58.229Z,6.39
2022-11-25T04:15:30.760Z,8.51
2022-11-25T04:17:57.683Z,8.93
2022-11-25T04:20:24.401Z,7.43
2022-11-25T04:26:24.612Z,4.78
2022-11-25T04:28:53.099Z,4.10
2022-11-25T04:31:21.377Z,3.59
2022-11-25T04:33:52.585Z,3.19
2022-11-25T04:36:21.030Z,2.84
2022-11-25T04:38:49.039Z,3.31
2022-11-25T04:41:18.423Z,5.85
2022-11-25T04:43:46.377Z,8.14
2022-11-25T04:46:17.963Z,8.90
2022-11-25T04:48:50.730Z,7.48
2022-11-25T04:51:18.799Z,6.10
2022-11-25T04:53:47.566Z,5.06
2022-11-25T04:56:18.591Z,4.31
2022-11-25T04:59:05.729Z,3.76
2022-11-25T05:01:33.954Z,3.28
2022-11-25T05:04:10.207Z,2.90
2022-11-25T05:06:37.957Z,3.35
2022-11-25T05:09:06.576Z,5.38
2022-11-25T05:11:35.534Z,7.53
2022-11-25T05:14:03.552Z,8.66
2022-11-25T05:16:31.876Z,7.81
2022-11-25T05:19:00.030Z,6.37
2022-11-25T05:21:28.005Z,5.28
2022-11-25T05:23:56.132Z,4.50
2022-11-25T05:26:24.260Z,3.91
2022-11-25T05:28:54.576Z,3.44
2022-11-25T05:31:22.340Z,3.06
2022-11-25T05:33:50.824Z,3.34
2022-11-25T05:36:19.022Z,5.62
2022-11-25T05:38:48.317Z,7.55
2022-11-25T05:41:21.443Z,8.11
2022-11-25T05:43:49.321Z,7.57
2022-11-25T05:46:17.882Z,6.25
2022-11-25T05:48:53.310Z,5.16
2022-11-25T05:51:22.369Z,4.36
2022-11-25T05:53:51.000Z,3.79
2022-11-25T05:56:19.334Z,3.34
2022-11-25T05:59:22.525Z,2.89
2022-11-25T06:02:05.012Z,3.56
2022-11-25T06:04:33.592Z,5.35
2022-11-25T06:07:01.771Z,6.44
2022-11-25T06:09:29.939Z,6.97
2022-11-25T06:11:57.925Z,7.41
2022-11-25T06:14:25.949Z,7.98
2022-11-25T06:16:53.766Z,7.21
2022-11-25T06:19:29.048Z,5.98
2022-11-25T06:21:56.723Z,5.10
2022-11-25T06:24:25.618Z,4.44
2022-11-25T06:26:57.124Z,3.87
2022-11-25T06:29:25.016Z,3.41
2022-11-25T06:31:52.793Z,3.74
2022-11-25T06:34:32.454Z,5.53
2022-11-25T06:37:01.164Z,6.64
2022-11-25T06:39:28.844Z,7.32
2022-11-25T06:41:56.708Z,7.76
2022-11-25T06:44:24.388Z,7.68
2022-11-25T06:46:52.239Z,6.53
2022-11-25T06:49:19.949Z,5.50
2022-11-25T06:51:49.726Z,4.74
2022-11-25T06:54:17.332Z,4.11
2022-11-25T06:56:45.058Z,3.62
2022-11-25T06:59:12.845Z,3.25
2022-11-25T07:01:40.698Z,3.75
2022-11-25T07:04:08.451Z,6.22
2022-11-25T07:06:36.166Z,7.86
2022-11-25T07:09:04.679Z,8.36
2022-11-25T07:11:35.317Z,7.28
2022-11-25T07:14:06.351Z,6.00
2022-11-25T07:16:34.223Z,5.07
2022-11-25T07:19:03.183Z,4.45
2022-11-25T07:21:32.745Z,3.95
2022-11-25T07:24:02.687Z,3.55
2022-11-25T07:26:33.287Z,4.01
2022-11-25T07:29:04.264Z,6.20
2022-11-25T07:31:34.869Z,7.80
2022-11-25T07:34:08.199Z,8.57
2022-11-25T07:36:36.524Z,8.21
2022-11-25T07:39:07.877Z,6.84
2022-11-25T07:41:35.625Z,5.73
2022-11-25T07:44:05.772Z,4.99
2022-11-25T07:46:47.578Z,4.41
2022-11-25T07:49:18.517Z,3.99
2022-11-25T07:51:48.942Z,3.58
2022-11-25T07:54:17.466Z,3.98
2022-11-25T07:56:45.653Z,5.83
2022-11-25T07:59:15.692Z,7.11
2022-11-25T08:01:44.270Z,8.44
2022-11-25T08:04:19.494Z,9.02
2022-11-25T08:06:49.057Z,7.65
2022-11-25T08:09:19.824Z,6.43
2022-11-25T08:11:49.109Z,5.58
2022-11-25T08:14:17.023Z,4.95
2022-11-25T08:16:45.195Z,4.48
2022-11-25T08:19:15.714Z,4.07
2022-11-25T08:21:43.941Z,3.70
2022-11-25T08:24:20.678Z,4.04
2022-11-25T08:26:48.718Z,6.04
2022-11-25T08:29:18.212Z,8.05
2022-11-25T08:31:46.352Z,9.41
2022-11-25T08:34:23.436Z,9.24
2022-11-25T08:36:52.698Z,7.67
2022-11-25T08:39:50.690Z,6.47
2022-11-25T08:42:09.426Z,5.55
2022-11-25T08:44:37.394Z,4.98
2022-11-25T08:47:05.226Z,4.53
2022-11-25T08:49:39.148Z,4.14
2022-11-25T08:52:09.888Z,3.76
2022-11-25T08:54:38.158Z,4.30
2022-11-25T08:57:06.176Z,6.92
2022-11-25T08:59:34.071Z,8.80
2022-11-25T09:02:02.376Z,8.68
2022-11-25T09:04:30.132Z,7.28
2022-11-25T09:06:57.881Z,6.10
2022-11-25T09:09:26.115Z,5.22
2022-11-25T09:11:54.449Z,4.55
2022-11-25T09:14:22.407Z,3.99
2022-11-25T09:16:50.288Z,3.52
2022-11-25T09:19:17.944Z,4.04
2022-11-25T09:21:45.628Z,6.29
2022-11-25T09:27:57.482Z,7.79
2022-11-25T09:30:26.350Z,6.52
2022-11-25T09:32:55.485Z,5.45
2022-11-25T09:35:25.183Z,4.65
2022-11-25T09:37:53.249Z,4.03
2022-11-25T09:40:40.645Z,4.12
2022-11-25T09:43:55.779Z,6.35
2022-11-25T09:46:42.001Z,8.11
2022-11-25T09:49:28.521Z,8.88
2022-11-25T09:52:10.784Z,9.46
2022-11-25T09:54:49.360Z,7.90
2022-11-25T09:57:48.288Z,6.55
2022-11-25T10:00:20.077Z,5.47
2022-11-25T10:02:51.007Z,4.78
2022-11-25T10:05:24.964Z,4.18
2022-11-25T10:07:56.588Z,3.71
2022-11-25T10:10:29.034Z,3.97
2022-11-25T10:12:58.743Z,5.44
2022-11-25T10:15:45.434Z,6.27
2022-11-25T10:18:21.399Z,6.60
2022-11-25T10:20:50.717Z,6.92
2022-11-25T10:23:28.540Z,7.19
2022-11-25T10:26:01.416Z,8.56
2022-11-25T10:28:34.296Z,9.38
2022-11-25T10:31:02.006Z,7.84
2022-11-25T10:33:44.025Z,6.42
2022-11-25T10:36:14.906Z,5.35
2022-11-25T10:39:00.925Z,4.61
2022-11-25T10:41:35.626Z,4.01
2022-11-25T10:44:04.146Z,3.59
2022-11-25T10:50:05.863Z,5.17
2022-11-25T10:52:46.780Z,6.04
2022-11-25T10:55:20.725Z,7.65
2022-11-25T10:57:48.437Z,9.44
2022-11-25T11:00:32.711Z,9.66
2022-11-25T11:03:14.780Z,8.02
2022-11-25T11:05:51.364Z,6.60
2022-11-25T11:08:23.002Z,5.59
2022-11-25T11:11:23.388Z,4.87
2022-11-25T11:14:18.999Z,4.18
2022-11-25T11:16:55.649Z,3.73
2022-11-25T11:19:27.332Z,4.21
2022-11-25T11:21:56.422Z,6.39
2022-11-25T11:24:35.815Z,7.74
2022-11-25T11:27:24.827Z,8.21
2022-11-25T11:30:23.913Z,8.61
2022-11-25T11:33:04.629Z,8.15
2022-11-25T11:36:02.170Z,6.84
2022-11-25T11:38:36.872Z,5.71
2022-11-25T11:41:30.190Z,5.01
2022-11-25T11:44:07.779Z,4.42
2022-11-25T11:46:40.667Z,5.39
2022-11-25T11:49:45.584Z,7.20
2022-11-25T11:52:34.647Z,8.46
2022-11-25T11:55:25.488Z,8.87
2022-11-25T11:58:11.411Z,7.52
2022-11-25T12:01:05.626Z,6.21
2022-11-25T12:03:41.976Z,5.28
2022-11-25T12:06:12.055Z,4.70
2022-11-25T12:08:52.736Z,4.31
2022-11-25T12:11:25.403Z,4.79
2022-11-25T12:14:05.731Z,6.86
2022-11-25T12:16:40.877Z,8.34
2022-11-25T12:19:20.651Z,8.85
2022-11-25T12:28:55.254Z,6.07
2022-11-25T12:31:44.248Z,5.44
2022-11-25T12:34:32.177Z,4.97
2022-11-25T12:37:15.384Z,4.62
2022-11-25T12:39:57.075Z,5.21
2022-11-25T12:42:26.335Z,7.20
2022-11-25T12:45:11.278Z,8.62
2022-11-25T12:47:41.567Z,9.86
2022-11-25T12:50:17.031Z,9.22
2022-11-25T12:52:50.746Z,7.90
2022-11-25T12:55:21.710Z,6.88
2022-11-25T12:58:08.360Z,6.17
2022-11-25T13:00:54.683Z,5.60
2022-11-25T13:03:44.215Z,5.12
2022-11-25T13:06:38.768Z,4.70
2022-11-25T13:09:31.451Z,5.93
2022-11-25T13:12:18.003Z,8.88
2022-11-25T13:15:19.237Z,9.96
2022-11-25T13:17:50.464Z,10.16
2022-11-25T13:20:27.369Z,8.70
2022-11-25T13:26:36.199Z,6.36
2022-11-25T13:29:27.008Z,5.73
2022-11-25T13:32:05.159Z,5.20
2022-11-25T13:34:35.529Z,4.81
2022-11-25T13:37:40.656Z,5.56
2022-11-25T13:40:41.121Z,7.90
2022-11-25T13:43:21.487Z,8.47
2022-11-25T13:45:49.851Z,8.89
2022-11-25T13:48:24.843Z,8.64
2022-11-25T13:51:22.338Z,7.45
2022-11-25T13:53:54.628Z,6.35
2022-11-25T13:56:30.755Z,5.72
2022-11-25T13:59:19.862Z,5.24
2022-11-25T14:01:47.686Z,4.76
2022-11-25T14:04:16.719Z,4.39
2022-11-25T14:06:52.599Z,4.88
2022-11-25T14:09:26.098Z,7.02
2022-11-25T14:12:02.927Z,7.69
2022-11-25T14:14:46.578Z,8.14
2022-11-25T14:17:42.134Z,8.51
2022-11-25T14:20:39.096Z,8.72
2022-11-25T14:23:24.558Z,7.69
2022-11-25T14:25:57.758Z,6.51
2022-11-25T14:28:44.449Z,5.72
2022-11-25T14:31:17.763Z,5.07
2022-11-25T14:33:51.742Z,4.59
2022-11-25T14:36:24.806Z,4.69
2022-11-25T14:38:59.882Z,5.90
2022-11-25T14:41:44.190Z,6.59
2022-11-25T14:44:21.722Z,7.14
2022-11-25T14:46:54.644Z,7.61
2022-11-25T14:49:45.180Z,7.83
2022-11-25T14:52:15.683Z,8.06
2022-11-25T14:54:44.626Z,8.78
2022-11-25T14:57:12.780Z,8.42
2022-11-25T14:59:45.170Z,7.19
2022-11-25T15:02:31.468Z,6.13
2022-11-25T15:05:19.541Z,5.33
2022-11-25T15:08:13.258Z,5.53
2022-11-25T15:10:53.983Z,7.47
2022-11-25T15:13:37.711Z,8.68
2022-11-25T15:16:11.438Z,9.26
2022-11-25T15:19:04.001Z,8.67
2022-11-25T15:21:48.299Z,7.23
2022-11-25T15:27:55.761Z,5.35
2022-11-25T15:30:27.040Z,4.91
2022-11-25T15:32:55.886Z,5.18
2022-11-25T15:35:26.221Z,6.70
2022-11-25T15:37:56.611Z,7.67
2022-11-25T15:40:40.687Z,8.33
2022-11-25T15:43:23.491Z,8.62
2022-11-25T15:45:57.539Z,8.93
2022-11-25T15:48:31.146Z,8.34
2022-11-25T15:51:05.593Z,7.25
2022-11-25T15:53:37.047Z,6.42
2022-11-25T15:56:07.323Z,5.78
2022-11-25T15:58:35.314Z,5.25
2022-11-25T16:01:06.192Z,4.78
2022-11-25T16:03:35.531Z,4.89
2022-11-25T16:06:19.848Z,6.13
2022-11-25T16:08:58.719Z,6.95
2022-11-25T16:11:33.753Z,7.38
2022-11-25T16:14:34.651Z,7.84
2022-11-25T16:17:09.606Z,8.07
2022-11-25T16:19:44.403Z,8.18
2022-11-25T16:22:16.268Z,8.66
2022-11-25T16:24:57.312Z,9.41
2022-11-25T16:27:29.396Z,8.74
2022-11-25T16:30:06.450Z,7.57
2022-11-25T16:32:34.618Z,6.64
2022-11-25T16:35:18.251Z,6.00
2022-11-25T16:37:49.228Z,5.43
2022-11-25T16:40:18.707Z,5.50
2022-11-25T16:42:48.373Z,6.67
2022-11-25T16:45:26.396Z,7.42
2022-11-25T16:47:55.234Z,7.85
2022-11-25T16:50:23.820Z,8.15
2022-11-25T16:52:51.558Z,8.84
2022-11-25T16:55:19.279Z,9.45
2022-11-25T16:57:47.152Z,8.56
2022-11-25T17:00:17.149Z,7.31
2022-11-25T17:02:45.357Z,6.31
2022-11-25T17:05:19.271Z,5.58
2022-11-25T17:07:47.925Z,5.64
2022-11-25T17:10:16.458Z,6.97
2022-11-25T17:12:45.363Z,8.13
2022-11-25T17:15:19.955Z,8.83
2022-11-25T17:17:49.136Z,9.25
2022-11-25T17:20:21.697Z,9.58
2022-11-25T17:22:49.959Z,9.19
2022-11-25T17:25:18.142Z,7.80
2022-11-25T17:27:46.263Z,6.64
2022-11-25T17:30:27.346Z,5.82
2022-11-25T17:33:03.651Z,5.15
2022-11-25T17:35:31.664Z,4.64
2022-11-25T17:38:01.022Z,4.24
2022-11-25T17:40:28.884Z,4.56
2022-11-25T17:42:57.154Z,6.35
2022-11-25T17:45:25.004Z,7.70
2022-11-25T17:47:52.747Z,8.60
2022-11-25T17:50:23.068Z,8.98
2022-11-25T17:52:51.473Z,8.85
2022-11-25T17:55:21.968Z,7.80
2022-11-25T17:57:49.896Z,6.66
2022-11-25T18:00:21.415Z,5.84
2022-11-25T18:02:49.720Z,5.18
2022-11-25T18:05:20.346Z,5.17
2022-11-25T18:07:49.171Z,6.37
2022-11-25T18:10:19.872Z,7.54
2022-11-25T18:12:49.824Z,8.20
2022-11-25T18:15:22.467Z,8.70
2022-11-25T18:17:53.536Z,9.09
2022-11-25T18:20:26.228Z,9.46
2022-11-25T18:22:54.190Z,8.54
2022-11-25T18:25:29.293Z,7.33
2022-11-25T18:27:58.090Z,6.38
2022-11-25T18:30:31.085Z,5.66
2022-11-25T18:33:00.759Z,5.82
2022-11-25T18:35:35.810Z,7.55
2022-11-25T18:38:05.188Z,8.03
2022-11-25T18:40:35.126Z,8.37
2022-11-25T18:43:04.670Z,8.56
2022-11-25T18:45:37.683Z,8.79
2022-11-25T18:48:16.158Z,9.21
2022-11-25T18:50:45.106Z,10.40
2022-11-25T18:53:13.477Z,9.36
2022-11-25T18:55:41.975Z,7.90
2022-11-25T18:58:17.207Z,6.83
2022-11-25T19:00:50.171Z,5.93
2022-11-25T19:03:23.473Z,5.26
2022-11-25T19:05:54.184Z,5.24
2022-11-25T19:08:21.929Z,7.32
2022-11-25T19:10:50.791Z,9.11
2022-11-25T19:13:31.768Z,9.71
2022-11-25T19:16:06.397Z,9.05
2022-11-25T19:18:35.201Z,7.48
2022-11-25T19:21:03.294Z,6.30
2022-11-25T19:27:01.974Z,6.33
2022-11-25T19:29:29.624Z,8.21
2022-11-25T19:31:58.431Z,9.60
2022-11-25T19:34:38.533Z,10.45
2022-11-25T19:37:06.443Z,9.33
2022-11-25T19:39:36.390Z,7.88
2022-11-25T19:42:04.154Z,6.81
2022-11-25T19:44:31.919Z,6.02
2022-11-25T19:47:14.720Z,5.42
2022-11-25T19:49:44.103Z,5.58
2022-11-25T19:52:18.024Z,6.84
2022-11-25T19:54:48.373Z,8.21
2022-11-25T19:57:22.132Z,9.44
2022-11-25T19:59:50.150Z,10.14
2022-11-25T20:02:22.837Z,9.01
2022-11-25T20:04:54.333Z,7.59
2022-11-25T20:07:22.301Z,6.60
2022-11-25T20:09:51.566Z,5.87
2022-11-25T20:12:20.158Z,5.29
2022-11-25T20:14:48.835Z,5.47
2022-11-25T20:17:32.790Z,6.70
2022-11-25T20:20:11.642Z,7.12
2022-11-25T20:22:44.265Z,7.33
2022-11-25T20:25:14.797Z,7.61
2022-11-25T20:27:42.617Z,7.85
2022-11-25T20:30:17.171Z,8.41
2022-11-25T20:32:44.964Z,9.03
2022-11-25T20:35:13.382Z,9.45
2022-11-25T20:37:53.832Z,9.30
2022-11-25T20:40:42.124Z,8.01
2022-11-25T20:43:47.422Z,6.89
2022-11-25T20:46:23.914Z,6.01
2022-11-25T20:48:54.509Z,5.45
2022-11-25T20:51:23.817Z,5.58
2022-11-25T20:54:03.329Z,6.39
2022-11-25T20:56:31.038Z,6.79
2022-11-25T20:58:58.728Z,7.66
2022-11-25T21:01:26.704Z,8.40
2022-11-25T21:03:54.580Z,9.90
2022-11-25T21:06:25.675Z,9.88
2022-11-25T21:08:55.648Z,8.52
2022-11-25T21:11:23.434Z,7.35
2022-11-25T21:13:52.172Z,6.52
2022-11-25T21:16:20.212Z,5.91
2022-11-25T21:18:48.017Z,5.44
2022-11-25T21:21:28.716Z,5.45
2022-11-25T21:23:56.853Z,6.48
2022-11-25T21:26:26.581Z,7.04
2022-11-25T21:28:54.748Z,7.38
2022-11-25T21:31:24.789Z,8.38
2022-11-25T21:33:57.610Z,9.42
2022-11-25T21:36:31.224Z,9.50
2022-11-25T21:39:09.089Z,8.20
2022-11-25T21:41:36.931Z,6.96
2022-11-25T21:44:06.261Z,6.13
2022-11-25T21:46:34.186Z,5.53
2022-11-25T21:49:02.124Z,5.40
2022-11-25T21:51:29.849Z,6.29
2022-11-25T21:53:57.502Z,7.33
2022-11-25T21:56:32.082Z,7.85
2022-11-25T21:59:01.578Z,8.16
2022-11-25T22:01:29.859Z,8.28
2022-11-25T22:03:58.122Z,8.41
2022-11-25T22:06:29.138Z,8.49
2022-11-25T22:08:57.442Z,8.55
2022-11-25T22:11:33.715Z,8.58
2022-11-25T22:14:06.614Z,8.58
2022-11-25T22:16:36.663Z,8.26
2022-11-25T22:19:04.541Z,7.25
2022-11-25T22:21:32.408Z,6.32
2022-11-25T22:24:00.162Z,5.59
2022-11-25T22:26:32.763Z,5.28
2022-11-25T22:29:01.917Z,6.16
2022-11-25T22:31:29.712Z,7.54
2022-11-25T22:33:57.736Z,8.45
2022-11-25T22:36:28.300Z,8.97
2022-11-25T22:38:58.987Z,9.47
2022-11-25T22:41:27.114Z,9.43
2022-11-25T22:43:54.941Z,8.22
2022-11-25T22:46:22.791Z,7.12
2022-11-25T22:48:50.603Z,6.31
2022-11-25T22:51:24.801Z,5.70
2022-11-25T22:53:52.640Z,5.74
2022-11-25T22:56:20.478Z,7.07
2022-11-25T22:58:48.677Z,7.99
2022-11-25T23:01:17.202Z,8.45
2022-11-25T23:03:45.187Z,8.75
2022-11-25T23:06:13.911Z,9.04
2022-11-25T23:08:41.778Z,9.01
2022-11-25T23:11:17.378Z,8.01
2022-11-25T23:13:45.138Z,6.99
2022-11-25T23:16:12.867Z,6.27
2022-11-25T23:18:44.784Z,5.68
2022-11-25T23:21:21.394Z,5.91
2022-11-25T23:23:50.260Z,7.64
2022-11-25T23:26:18.153Z,8.67
2022-11-25T23:28:45.877Z,9.23
2022-11-25T23:31:15.371Z,9.50
2022-11-25T23:33:48.506Z,8.90
2022-11-25T23:36:47.364Z,7.71
2022-11-25T23:39:20.095Z,6.67
2022-11-25T23:41:48.856Z,6.02
2022-11-25T23:44:28.627Z,6.14
2022-11-25T23:47:04.271Z,7.60
2022-11-25T23:49:44.102Z,8.69
2022-11-25T23:52:23.097Z,9.62
2022-11-25T23:54:52.401Z,9.67
2022-11-25T23:57:26.827Z,8.36
2022-11-25T23:59:54.732Z,7.18
